sensor_id;sensor_type;location;lat;lon;timestamp;P1;durP1;ratioP1;P2;durP2;ratioP2
44366;SDS011;30086;57.660;12.000;2023-10-09T00:01:34;2.88;;;1.20;;
44366;SDS011;30086;57.660;12.000;2023-10-09T00:04:12;2.83;;;1.40;;
44366;SDS011;30086;57.660;12.000;2023-10-09T00:06:41;3.92;;;1.38;;
44366;SDS011;30086;57.660;12.000;2023-10-09T00:09:07;4.78;;;1.52;;
44366;SDS011;30086;57.660;12.000;2023-10-09T00:14:56;1.48;;;1.27;;
44366;SDS011;30086;57.660;12.000;2023-10-09T00:18:03;3.28;;;1.50;;
44366;SDS011;30086;57.660;12.000;2023-10-09T00:20:56;2.45;;;1.42;;
44366;SDS011;30086;57.660;12.000;2023-10-09T00:23:59;2.25;;;1.40;;
44366;SDS011;30086;57.660;12.000;2023-10-09T00:26:33;6.18;;;1.55;;
44366;SDS011;30086;57.660;12.000;2023-10-09T00:29:29;1.85;;;1.30;;
44366;SDS011;30086;57.660;12.000;2023-10-09T00:32:11;2.47;;;1.30;;
44366;SDS011;30086;57.660;12.000;2023-10-09T00:35:12;2.83;;;1.58;;
44366;SDS011;30086;57.660;12.000;2023-10-09T00:37:57;3.17;;;1.63;;
44366;SDS011;30086;57.660;12.000;2023-10-09T00:40:33;7.68;;;1.88;;
44366;SDS011;30086;57.660;12.000;2023-10-09T00:43:02;2.75;;;1.30;;
44366;SDS011;30086;57.660;12.000;2023-10-09T00:45:34;1.95;;;1.17;;
44366;SDS011;30086;57.660;12.000;2023-10-09T00:48:09;2.35;;;1.20;;
44366;SDS011;30086;57.660;12.000;2023-10-09T00:50:44;2.42;;;1.30;;
44366;SDS011;30086;57.660;12.000;2023-10-09T00:53:18;3.50;;;1.60;;
44366;SDS011;30086;57.660;12.000;2023-10-09T00:55:59;5.50;;;1.85;;
44366;SDS011;30086;57.660;12.000;2023-10-09T00:58:45;3.58;;;1.45;;
44366;SDS011;30086;57.660;12.000;2023-10-09T01:01:17;2.55;;;1.20;;
44366;SDS011;30086;57.660;12.000;2023-10-09T01:06:24;3.22;;;1.52;;
44366;SDS011;30086;57.660;12.000;2023-10-09T01:08:53;2.38;;;1.13;;
44366;SDS011;30086;57.660;12.000;2023-10-09T01:11:35;1.75;;;1.35;;
44366;SDS011;30086;57.660;12.000;2023-10-09T01:14:12;5.22;;;1.35;;
44366;SDS011;30086;57.660;12.000;2023-10-09T01:16:39;2.90;;;1.40;;
44366;SDS011;30086;57.660;12.000;2023-10-09T01:19:09;3.53;;;1.20;;
44366;SDS011;30086;57.660;12.000;2023-10-09T01:21:45;2.95;;;1.35;;
44366;SDS011;30086;57.660;12.000;2023-10-09T01:24:11;2.22;;;1.27;;
44366;SDS011;30086;57.660;12.000;2023-10-09T01:26:39;2.63;;;1.30;;
44366;SDS011;30086;57.660;12.000;2023-10-09T01:29:10;3.65;;;1.20;;
44366;SDS011;30086;57.660;12.000;2023-10-09T01:31:48;1.90;;;1.38;;
44366;SDS011;30086;57.660;12.000;2023-10-09T01:36:50;3.72;;;1.30;;
44366;SDS011;30086;57.660;12.000;2023-10-09T01:39:19;2.47;;;1.20;;
44366;SDS011;30086;57.660;12.000;2023-10-09T01:41:50;2.22;;;1.30;;
44366;SDS011;30086;57.660;12.000;2023-10-09T01:44:30;2.10;;;1.23;;
44366;SDS011;30086;57.660;12.000;2023-10-09T01:47:04;1.98;;;1.15;;
44366;SDS011;30086;57.660;12.000;2023-10-09T01:49:42;3.70;;;1.58;;
44366;SDS011;30086;57.660;12.000;2023-10-09T01:52:10;1.73;;;1.35;;
44366;SDS011;30086;57.660;12.000;2023-10-09T01:54:41;2.63;;;1.23;;
44366;SDS011;30086;57.660;12.000;2023-10-09T01:57:11;3.00;;;1.40;;
44366;SDS011;30086;57.660;12.000;2023-10-09T01:59:40;2.35;;;1.40;;
44366;SDS011;30086;57.660;12.000;2023-10-09T02:02:29;3.67;;;1.17;;
44366;SDS011;30086;57.660;12.000;2023-10-09T02:05:03;2.88;;;1.13;;
44366;SDS011;30086;57.660;12.000;2023-10-09T02:07:56;4.97;;;1.48;;
44366;SDS011;30086;57.660;12.000;2023-10-09T02:10:23;2.97;;;1.25;;
44366;SDS011;30086;57.660;12.000;2023-10-09T02:12:50;1.60;;;1.15;;
44366;SDS011;30086;57.660;12.000;2023-10-09T02:15:37;3.72;;;1.33;;
44366;SDS011;30086;57.660;12.000;2023-10-09T02:18:06;2.40;;;1.35;;
44366;SDS011;30086;57.660;12.000;2023-10-09T02:23:26;2.13;;;1.48;;
44366;SDS011;30086;57.660;12.000;2023-10-09T02:26:01;10.07;;;1.30;;
44366;SDS011;30086;57.660;12.000;2023-10-09T02:28:31;4.88;;;1.48;;
44366;SDS011;30086;57.660;12.000;2023-10-09T02:30:58;2.67;;;1.20;;
44366;SDS011;30086;57.660;12.000;2023-10-09T02:33:44;3.70;;;1.75;;
44366;SDS011;30086;57.660;12.000;2023-10-09T02:36:12;5.10;;;1.50;;
44366;SDS011;30086;57.660;12.000;2023-10-09T02:38:47;3.08;;;1.45;;
44366;SDS011;30086;57.660;12.000;2023-10-09T02:41:15;2.78;;;1.30;;
44366;SDS011;30086;57.660;12.000;2023-10-09T02:43:44;2.03;;;1.30;;
44366;SDS011;30086;57.660;12.000;2023-10-09T02:46:18;3.08;;;1.15;;
44366;SDS011;30086;57.660;12.000;2023-10-09T02:49:04;4.10;;;1.30;;
44366;SDS011;30086;57.660;12.000;2023-10-09T02:51:41;2.22;;;1.30;;
44366;SDS011;30086;57.660;12.000;2023-10-09T02:54:32;4.05;;;1.30;;
44366;SDS011;30086;57.660;12.000;2023-10-09T02:57:06;2.40;;;1.42;;
44366;SDS011;30086;57.660;12.000;2023-10-09T02:59:36;2.03;;;1.10;;
44366;SDS011;30086;57.660;12.000;2023-10-09T03:02:11;3.63;;;1.33;;
44366;SDS011;30086;57.660;12.000;2023-10-09T03:04:41;2.78;;;1.25;;
44366;SDS011;30086;57.660;12.000;2023-10-09T03:07:08;4.10;;;1.83;;
44366;SDS011;30086;57.660;12.000;2023-10-09T03:09:35;3.05;;;1.60;;
44366;SDS011;30086;57.660;12.000;2023-10-09T03:12:03;3.20;;;1.42;;
44366;SDS011;30086;57.660;12.000;2023-10-09T03:14:31;5.90;;;1.50;;
44366;SDS011;30086;57.660;12.000;2023-10-09T03:17:00;4.03;;;1.50;;
44366;SDS011;30086;57.660;12.000;2023-10-09T03:19:28;2.97;;;1.60;;
44366;SDS011;30086;57.660;12.000;2023-10-09T03:21:55;3.38;;;1.60;;
44366;SDS011;30086;57.660;12.000;2023-10-09T03:24:25;2.17;;;1.38;;
44366;SDS011;30086;57.660;12.000;2023-10-09T03:26:56;2.38;;;1.30;;
44366;SDS011;30086;57.660;12.000;2023-10-09T03:29:24;5.03;;;1.70;;
44366;SDS011;30086;57.660;12.000;2023-10-09T03:31:52;3.30;;;1.50;;
44366;SDS011;30086;57.660;12.000;2023-10-09T03:34:23;3.00;;;1.40;;
44366;SDS011;30086;57.660;12.000;2023-10-09T03:36:50;4.32;;;1.27;;
44366;SDS011;30086;57.660;12.000;2023-10-09T03:39:38;5.63;;;1.50;;
44366;SDS011;30086;57.660;12.000;2023-10-09T03:42:07;2.53;;;1.55;;
44366;SDS011;30086;57.660;12.000;2023-10-09T03:44:47;3.03;;;1.42;;
44366;SDS011;30086;57.660;12.000;2023-10-09T03:47:22;2.08;;;1.33;;
44366;SDS011;30086;57.660;12.000;2023-10-09T03:49:49;3.65;;;1.50;;
44366;SDS011;30086;57.660;12.000;2023-10-09T03:52:18;3.33;;;1.50;;
44366;SDS011;30086;57.660;12.000;2023-10-09T03:54:45;2.72;;;1.73;;
44366;SDS011;30086;57.660;12.000;2023-10-09T04:00:01;2.72;;;1.27;;
44366;SDS011;30086;57.660;12.000;2023-10-09T04:02:39;5.88;;;1.77;;
44366;SDS011;30086;57.660;12.000;2023-10-09T04:05:09;4.05;;;1.77;;
44366;SDS011;30086;57.660;12.000;2023-10-09T04:07:45;5.28;;;1.60;;
44366;SDS011;30086;57.660;12.000;2023-10-09T04:10:22;2.95;;;1.17;;
44366;SDS011;30086;57.660;12.000;2023-10-09T04:13:11;8.23;;;1.52;;
44366;SDS011;30086;57.660;12.000;2023-10-09T04:15:50;3.90;;;1.40;;
44366;SDS011;30086;57.660;12.000;2023-10-09T04:18:22;2.30;;;1.45;;
44366;SDS011;30086;57.660;12.000;2023-10-09T04:21:00;4.35;;;1.95;;
44366;SDS011;30086;57.660;12.000;2023-10-09T04:23:44;6.22;;;1.48;;
44366;SDS011;30086;57.660;12.000;2023-10-09T04:26:28;4.22;;;1.48;;
44366;SDS011;30086;57.660;12.000;2023-10-09T04:29:03;4.05;;;1.65;;
44366;SDS011;30086;57.660;12.000;2023-10-09T04:31:34;1.85;;;1.17;;
44366;SDS011;30086;57.660;12.000;2023-10-09T04:34:06;6.53;;;1.50;;
44366;SDS011;30086;57.660;12.000;2023-10-09T04:36:58;2.92;;;1.60;;
44366;SDS011;30086;57.660;12.000;2023-10-09T04:40:03;7.15;;;1.77;;
44366;SDS011;30086;57.660;12.000;2023-10-09T04:42:53;3.17;;;1.30;;
44366;SDS011;30086;57.660;12.000;2023-10-09T04:45:31;2.75;;;1.63;;
44366;SDS011;30086;57.660;12.000;2023-10-09T04:48:47;5.00;;;1.80;;
44366;SDS011;30086;57.660;12.000;2023-10-09T04:54:02;7.10;;;2.08;;
44366;SDS011;30086;57.660;12.000;2023-10-09T04:56:39;6.00;;;1.80;;
44366;SDS011;30086;57.660;12.000;2023-10-09T04:59:18;3.95;;;1.65;;
44366;SDS011;30086;57.660;12.000;2023-10-09T05:01:50;8.55;;;2.20;;
44366;SDS011;30086;57.660;12.000;2023-10-09T05:04:25;3.90;;;1.50;;
44366;SDS011;30086;57.660;12.000;2023-10-09T05:09:55;6.97;;;2.22;;
44366;SDS011;30086;57.660;12.000;2023-10-09T05:12:33;5.78;;;1.73;;
44366;SDS011;30086;57.660;12.000;2023-10-09T05:14:59;4.97;;;1.70;;
44366;SDS011;30086;57.660;12.000;2023-10-09T05:17:36;6.25;;;1.45;;
44366;SDS011;30086;57.660;12.000;2023-10-09T05:20:07;4.95;;;2.03;;
44366;SDS011;30086;57.660;12.000;2023-10-09T05:22:52;8.23;;;1.58;;
44366;SDS011;30086;57.660;12.000;2023-10-09T05:25:24;3.58;;;1.55;;
44366;SDS011;30086;57.660;12.000;2023-10-09T05:34:18;3.67;;;1.90;;
44366;SDS011;30086;57.660;12.000;2023-10-09T05:43:21;4.35;;;1.85;;
44366;SDS011;30086;57.660;12.000;2023-10-09T05:46:15;5.60;;;2.03;;
44366;SDS011;30086;57.660;12.000;2023-10-09T05:49:11;5.22;;;1.90;;
44366;SDS011;30086;57.660;12.000;2023-10-09T05:51:46;7.90;;;2.00;;
44366;SDS011;30086;57.660;12.000;2023-10-09T05:59:37;13.20;;;2.00;;
44366;SDS011;30086;57.660;12.000;2023-10-09T06:02:22;3.38;;;1.55;;
44366;SDS011;30086;57.660;12.000;2023-10-09T06:05:07;6.57;;;3.45;;
44366;SDS011;30086;57.660;12.000;2023-10-09T06:07:55;6.55;;;1.67;;
44366;SDS011;30086;57.660;12.000;2023-10-09T06:10:35;3.50;;;1.77;;
44366;SDS011;30086;57.660;12.000;2023-10-09T06:13:07;2.77;;;1.60;;
44366;SDS011;30086;57.660;12.000;2023-10-09T06:15:51;2.97;;;1.42;;
44366;SDS011;30086;57.660;12.000;2023-10-09T06:18:34;4.13;;;1.77;;
44366;SDS011;30086;57.660;12.000;2023-10-09T06:21:07;5.15;;;1.70;;
44366;SDS011;30086;57.660;12.000;2023-10-09T06:23:54;7.13;;;1.98;;
44366;SDS011;30086;57.660;12.000;2023-10-09T06:26:39;5.28;;;1.77;;
44366;SDS011;30086;57.660;12.000;2023-10-09T06:30:06;3.15;;;1.52;;
44366;SDS011;30086;57.660;12.000;2023-10-09T06:36:19;2.45;;;1.33;;
44366;SDS011;30086;57.660;12.000;2023-10-09T06:39:20;9.05;;;2.28;;
44366;SDS011;30086;57.660;12.000;2023-10-09T06:42:24;4.97;;;1.77;;
44366;SDS011;30086;57.660;12.000;2023-10-09T06:48:33;7.07;;;2.22;;
44366;SDS011;30086;57.660;12.000;2023-10-09T06:51:02;9.05;;;2.65;;
44366;SDS011;30086;57.660;12.000;2023-10-09T06:53:34;15.48;;;2.13;;
44366;SDS011;30086;57.660;12.000;2023-10-09T06:56:25;5.70;;;2.05;;
44366;SDS011;30086;57.660;12.000;2023-10-09T06:59:29;4.75;;;2.03;;
44366;SDS011;30086;57.660;12.000;2023-10-09T07:02:28;3.47;;;1.90;;
44366;SDS011;30086;57.660;12.000;2023-10-09T07:05:23;8.68;;;1.98;;
44366;SDS011;30086;57.660;12.000;2023-10-09T07:08:03;7.95;;;2.00;;
44366;SDS011;30086;57.660;12.000;2023-10-09T07:11:21;7.03;;;1.85;;
44366;SDS011;30086;57.660;12.000;2023-10-09T07:17:24;5.30;;;1.75;;
44366;SDS011;30086;57.660;12.000;2023-10-09T07:20:11;6.68;;;1.70;;
44366;SDS011;30086;57.660;12.000;2023-10-09T07:22:43;8.75;;;1.80;;
44366;SDS011;30086;57.660;12.000;2023-10-09T07:25:21;5.00;;;1.63;;
44366;SDS011;30086;57.660;12.000;2023-10-09T07:28:09;6.63;;;1.95;;
44366;SDS011;30086;57.660;12.000;2023-10-09T07:31:06;5.25;;;2.10;;
44366;SDS011;30086;57.660;12.000;2023-10-09T07:33:47;2.85;;;1.90;;
44366;SDS011;30086;57.660;12.000;2023-10-09T07:39:43;9.57;;;2.20;;
44366;SDS011;30086;57.660;12.000;2023-10-09T07:48:46;10.35;;;1.88;;
44366;SDS011;30086;57.660;12.000;2023-10-09T08:04:25;8.13;;;2.45;;
44366;SDS011;30086;57.660;12.000;2023-10-09T08:07:22;12.40;;;2.25;;
44366;SDS011;30086;57.660;12.000;2023-10-09T08:23:00;8.27;;;2.30;;
44366;SDS011;30086;57.660;12.000;2023-10-09T09:37:35;2.00;;;0.82;;
44366;SDS011;30086;57.660;12.000;2023-10-09T09:43:56;8.63;;;0.88;;
44366;SDS011;30086;57.660;12.000;2023-10-09T09:46:31;1.50;;;0.65;;
44366;SDS011;30086;57.660;12.000;2023-10-09T09:49:10;2.08;;;1.00;;
44366;SDS011;30086;57.660;12.000;2023-10-09T09:51:52;1.20;;;0.52;;
44366;SDS011;30086;57.660;12.000;2023-10-09T09:55:18;2.15;;;0.70;;
44366;SDS011;30086;57.660;12.000;2023-10-09T09:58:03;2.83;;;0.77;;
44366;SDS011;30086;57.660;12.000;2023-10-09T12:35:08;1.48;;;0.63;;
44366;SDS011;30086;57.660;12.000;2023-10-09T12:44:07;1.67;;;0.70;;
44366;SDS011;30086;57.660;12.000;2023-10-09T15:07:21;3.35;;;1.35;;
44366;SDS011;30086;57.660;12.000;2023-10-09T15:09:51;2.05;;;0.80;;
44366;SDS011;30086;57.660;12.000;2023-10-09T15:12:31;2.08;;;0.80;;
44366;SDS011;30086;57.660;12.000;2023-10-09T15:14:59;2.47;;;1.08;;
44366;SDS011;30086;57.660;12.000;2023-10-09T15:17:26;0.98;;;0.82;;
44366;SDS011;30086;57.660;12.000;2023-10-09T15:19:54;4.45;;;1.10;;
44366;SDS011;30086;57.660;12.000;2023-10-09T15:22:24;3.50;;;0.95;;
44366;SDS011;30086;57.660;12.000;2023-10-09T15:25:00;1.83;;;0.80;;
44366;SDS011;30086;57.660;12.000;2023-10-09T15:28:12;3.13;;;0.70;;
44366;SDS011;30086;57.660;12.000;2023-10-09T15:30:40;2.65;;;0.93;;
44366;SDS011;30086;57.660;12.000;2023-10-09T15:33:07;2.33;;;1.13;;
44366;SDS011;30086;57.660;12.000;2023-10-09T15:40:47;2.65;;;0.90;;
44366;SDS011;30086;57.660;12.000;2023-10-09T15:43:35;4.68;;;1.17;;
44366;SDS011;30086;57.660;12.000;2023-10-09T15:46:13;4.05;;;1.05;;
44366;SDS011;30086;57.660;12.000;2023-10-09T15:48:48;2.10;;;1.05;;
44366;SDS011;30086;57.660;12.000;2023-10-09T15:51:21;2.38;;;1.30;;
44366;SDS011;30086;57.660;12.000;2023-10-09T15:53:47;2.75;;;0.90;;
44366;SDS011;30086;57.660;12.000;2023-10-09T15:56:14;2.50;;;1.10;;
44366;SDS011;30086;57.660;12.000;2023-10-09T15:58:50;3.05;;;0.85;;
44366;SDS011;30086;57.660;12.000;2023-10-09T16:01:19;3.65;;;1.40;;
44366;SDS011;30086;57.660;12.000;2023-10-09T16:03:46;3.95;;;0.90;;
44366;SDS011;30086;57.660;12.000;2023-10-09T16:09:14;2.60;;;0.90;;
44366;SDS011;30086;57.660;12.000;2023-10-09T16:12:05;3.03;;;1.10;;
44366;SDS011;30086;57.660;12.000;2023-10-09T16:14:31;5.55;;;2.65;;
44366;SDS011;30086;57.660;12.000;2023-10-09T16:17:05;7.03;;;2.13;;
44366;SDS011;30086;57.660;12.000;2023-10-09T16:19:32;3.85;;;1.13;;
44366;SDS011;30086;57.660;12.000;2023-10-09T16:22:04;3.38;;;1.35;;
44366;SDS011;30086;57.660;12.000;2023-10-09T16:24:43;1.25;;;1.02;;
44366;SDS011;30086;57.660;12.000;2023-10-09T16:27:11;3.40;;;1.45;;
44366;SDS011;30086;57.660;12.000;2023-10-09T16:29:39;2.40;;;1.15;;
44366;SDS011;30086;57.660;12.000;2023-10-09T16:32:10;4.50;;;1.90;;
44366;SDS011;30086;57.660;12.000;2023-10-09T16:34:56;3.20;;;1.40;;
44366;SDS011;30086;57.660;12.000;2023-10-09T16:37:42;3.28;;;1.40;;
44366;SDS011;30086;57.660;12.000;2023-10-09T16:40:09;2.95;;;1.20;;
44366;SDS011;30086;57.660;12.000;2023-10-09T16:42:39;1.52;;;1.00;;
44366;SDS011;30086;57.660;12.000;2023-10-09T16:47:48;2.40;;;1.50;;
44366;SDS011;30086;57.660;12.000;2023-10-09T16:50:20;4.13;;;2.05;;
44366;SDS011;30086;57.660;12.000;2023-10-09T16:55:42;8.93;;;4.72;;
44366;SDS011;30086;57.660;12.000;2023-10-09T16:58:13;7.90;;;2.38;;
44366;SDS011;30086;57.660;12.000;2023-10-09T17:00:59;4.55;;;2.60;;
44366;SDS011;30086;57.660;12.000;2023-10-09T17:03:29;4.45;;;1.80;;
44366;SDS011;30086;57.660;12.000;2023-10-09T17:05:56;5.07;;;2.08;;
44366;SDS011;30086;57.660;12.000;2023-10-09T17:08:44;10.95;;;2.30;;
44366;SDS011;30086;57.660;12.000;2023-10-09T17:11:16;4.78;;;2.30;;
44366;SDS011;30086;57.660;12.000;2023-10-09T17:13:46;6.20;;;2.17;;
44366;SDS011;30086;57.660;12.000;2023-10-09T17:16:19;7.70;;;2.33;;
44366;SDS011;30086;57.660;12.000;2023-10-09T17:18:59;6.30;;;2.42;;
44366;SDS011;30086;57.660;12.000;2023-10-09T17:22:13;13.70;;;2.22;;
44366;SDS011;30086;57.660;12.000;2023-10-09T17:24:49;12.68;;;2.50;;
44366;SDS011;30086;57.660;12.000;2023-10-09T17:27:38;14.90;;;2.03;;
44366;SDS011;30086;57.660;12.000;2023-10-09T17:30:07;4.00;;;2.58;;
44366;SDS011;30086;57.660;12.000;2023-10-09T17:32:34;5.70;;;2.38;;
44366;SDS011;30086;57.660;12.000;2023-10-09T17:35:06;6.95;;;1.83;;
44366;SDS011;30086;57.660;12.000;2023-10-09T17:37:35;5.15;;;1.95;;
44366;SDS011;30086;57.660;12.000;2023-10-09T17:40:01;4.18;;;2.00;;
44366;SDS011;30086;57.660;12.000;2023-10-09T17:42:52;3.30;;;1.60;;
44366;SDS011;30086;57.660;12.000;2023-10-09T17:45:21;4.05;;;1.77;;
44366;SDS011;30086;57.660;12.000;2023-10-09T17:48:12;5.25;;;2.30;;
44366;SDS011;30086;57.660;12.000;2023-10-09T17:51:09;4.45;;;2.13;;
44366;SDS011;30086;57.660;12.000;2023-10-09T17:53:56;4.15;;;1.85;;
44366;SDS011;30086;57.660;12.000;2023-10-09T17:56:25;6.68;;;2.00;;
44366;SDS011;30086;57.660;12.000;2023-10-09T17:59:16;5.03;;;1.88;;
44366;SDS011;30086;57.660;12.000;2023-10-09T18:04:19;2.70;;;2.10;;
44366;SDS011;30086;57.660;12.000;2023-10-09T18:07:12;5.32;;;2.17;;
44366;SDS011;30086;57.660;12.000;2023-10-09T18:10:05;5.25;;;1.90;;
44366;SDS011;30086;57.660;12.000;2023-10-09T18:13:00;8.30;;;3.28;;
44366;SDS011;30086;57.660;12.000;2023-10-09T18:15:27;3.47;;;2.10;;
44366;SDS011;30086;57.660;12.000;2023-10-09T18:21:19;6.63;;;2.13;;
44366;SDS011;30086;57.660;12.000;2023-10-09T18:23:46;5.85;;;2.78;;
44366;SDS011;30086;57.660;12.000;2023-10-09T18:26:13;5.45;;;2.45;;
44366;SDS011;30086;57.660;12.000;2023-10-09T18:28:40;7.38;;;2.20;;
44366;SDS011;30086;57.660;12.000;2023-10-09T18:31:10;9.55;;;2.33;;
44366;SDS011;30086;57.660;12.000;2023-10-09T18:33:57;7.72;;;2.35;;
44366;SDS011;30086;57.660;12.000;2023-10-09T18:36:27;4.40;;;2.35;;
44366;SDS011;30086;57.660;12.000;2023-10-09T18:38:55;4.38;;;1.90;;
44366;SDS011;30086;57.660;12.000;2023-10-09T18:41:25;8.02;;;2.33;;
44366;SDS011;30086;57.660;12.000;2023-10-09T18:46:19;4.13;;;2.33;;
44366;SDS011;30086;57.660;12.000;2023-10-09T18:48:48;4.13;;;2.05;;
44366;SDS011;30086;57.660;12.000;2023-10-09T18:51:19;7.00;;;2.88;;
44366;SDS011;30086;57.660;12.000;2023-10-09T18:53:45;8.45;;;2.63;;
44366;SDS011;30086;57.660;12.000;2023-10-09T18:56:14;13.68;;;3.13;;
44366;SDS011;30086;57.660;12.000;2023-10-09T18:58:43;4.75;;;2.08;;
44366;SDS011;30086;57.660;12.000;2023-10-09T19:01:11;24.42;;;8.95;;
44366;SDS011;30086;57.660;12.000;2023-10-09T19:06:30;20.27;;;9.35;;
44366;SDS011;30086;57.660;12.000;2023-10-09T19:08:56;13.82;;;5.57;;
44366;SDS011;30086;57.660;12.000;2023-10-09T19:11:25;11.63;;;5.18;;
44366;SDS011;30086;57.660;12.000;2023-10-09T19:13:54;13.02;;;5.07;;
44366;SDS011;30086;57.660;12.000;2023-10-09T19:16:43;14.07;;;4.63;;
44366;SDS011;30086;57.660;12.000;2023-10-09T19:19:11;8.10;;;4.03;;
44366;SDS011;30086;57.660;12.000;2023-10-09T19:21:56;11.02;;;4.05;;
44366;SDS011;30086;57.660;12.000;2023-10-09T19:24:48;6.97;;;3.60;;
44366;SDS011;30086;57.660;12.000;2023-10-09T19:27:32;10.50;;;3.50;;
44366;SDS011;30086;57.660;12.000;2023-10-09T19:30:00;7.40;;;3.30;;
44366;SDS011;30086;57.660;12.000;2023-10-09T19:32:44;5.80;;;3.88;;
44366;SDS011;30086;57.660;12.000;2023-10-09T19:35:12;6.00;;;2.95;;
44366;SDS011;30086;57.660;12.000;2023-10-09T19:37:42;4.78;;;3.10;;
44366;SDS011;30086;57.660;12.000;2023-10-09T19:40:09;7.45;;;3.30;;
44366;SDS011;30086;57.660;12.000;2023-10-09T19:42:38;8.13;;;2.80;;
44366;SDS011;30086;57.660;12.000;2023-10-09T19:45:05;5.35;;;3.47;;
44366;SDS011;30086;57.660;12.000;2023-10-09T19:47:43;5.75;;;2.67;;
44366;SDS011;30086;57.660;12.000;2023-10-09T19:50:09;5.72;;;2.53;;
44366;SDS011;30086;57.660;12.000;2023-10-09T19:52:41;7.68;;;3.50;;
44366;SDS011;30086;57.660;12.000;2023-10-09T19:58:17;4.25;;;1.83;;
44366;SDS011;30086;57.660;12.000;2023-10-09T20:00:50;4.53;;;2.13;;
44366;SDS011;30086;57.660;12.000;2023-10-09T20:03:56;2.67;;;1.95;;
44366;SDS011;30086;57.660;12.000;2023-10-09T20:08:58;5.05;;;2.60;;
44366;SDS011;30086;57.660;12.000;2023-10-09T20:14:16;4.90;;;2.42;;
44366;SDS011;30086;57.660;12.000;2023-10-09T20:16:51;9.23;;;2.85;;
44366;SDS011;30086;57.660;12.000;2023-10-09T20:19:20;4.25;;;2.33;;
44366;SDS011;30086;57.660;12.000;2023-10-09T20:21:46;4.70;;;2.45;;
44366;SDS011;30086;57.660;12.000;2023-10-09T20:24:12;4.70;;;2.50;;
44366;SDS011;30086;57.660;12.000;2023-10-09T20:26:41;6.13;;;2.70;;
44366;SDS011;30086;57.660;12.000;2023-10-09T20:29:10;4.95;;;2.53;;
44366;SDS011;30086;57.660;12.000;2023-10-09T20:31:41;4.95;;;2.78;;
44366;SDS011;30086;57.660;12.000;2023-10-09T20:34:13;4.28;;;2.85;;
44366;SDS011;30086;57.660;12.000;2023-10-09T20:36:40;6.53;;;3.03;;
44366;SDS011;30086;57.660;12.000;2023-10-09T20:39:08;4.10;;;2.78;;
44366;SDS011;30086;57.660;12.000;2023-10-09T20:41:39;6.90;;;3.00;;
44366;SDS011;30086;57.660;12.000;2023-10-09T20:44:08;7.55;;;2.75;;
44366;SDS011;30086;57.660;12.000;2023-10-09T20:46:39;5.80;;;2.67;;
44366;SDS011;30086;57.660;12.000;2023-10-09T20:49:07;4.22;;;2.70;;
44366;SDS011;30086;57.660;12.000;2023-10-09T20:51:34;8.73;;;2.95;;
44366;SDS011;30086;57.660;12.000;2023-10-09T20:54:01;7.40;;;2.90;;
44366;SDS011;30086;57.660;12.000;2023-10-09T20:56:29;5.65;;;2.95;;
44366;SDS011;30086;57.660;12.000;2023-10-09T20:58:57;6.07;;;2.85;;
44366;SDS011;30086;57.660;12.000;2023-10-09T21:01:30;6.45;;;3.13;;
44366;SDS011;30086;57.660;12.000;2023-10-09T21:03:57;6.78;;;3.00;;
44366;SDS011;30086;57.660;12.000;2023-10-09T21:06:23;7.00;;;3.05;;
44366;SDS011;30086;57.660;12.000;2023-10-09T21:08:52;5.95;;;3.20;;
44366;SDS011;30086;57.660;12.000;2023-10-09T21:11:19;10.25;;;3.30;;
44366;SDS011;30086;57.660;12.000;2023-10-09T21:13:45;5.03;;;2.97;;
44366;SDS011;30086;57.660;12.000;2023-10-09T21:16:11;4.53;;;3.15;;
44366;SDS011;30086;57.660;12.000;2023-10-09T21:18:45;5.63;;;2.80;;
44366;SDS011;30086;57.660;12.000;2023-10-09T21:21:12;9.18;;;3.05;;
44366;SDS011;30086;57.660;12.000;2023-10-09T21:23:39;7.72;;;3.03;;
44366;SDS011;30086;57.660;12.000;2023-10-09T21:26:18;6.43;;;3.20;;
44366;SDS011;30086;57.660;12.000;2023-10-09T21:28:46;5.25;;;2.70;;
44366;SDS011;30086;57.660;12.000;2023-10-09T21:31:12;9.40;;;3.42;;
44366;SDS011;30086;57.660;12.000;2023-10-09T21:33:40;7.28;;;3.08;;
44366;SDS011;30086;57.660;12.000;2023-10-09T21:36:07;4.63;;;3.22;;
44366;SDS011;30086;57.660;12.000;2023-10-09T21:38:34;7.50;;;2.83;;
44366;SDS011;30086;57.660;12.000;2023-10-09T21:41:00;3.10;;;2.33;;
44366;SDS011;30086;57.660;12.000;2023-10-09T21:43:26;7.10;;;2.83;;
44366;SDS011;30086;57.660;12.000;2023-10-09T21:45:52;4.30;;;2.50;;
44366;SDS011;30086;57.660;12.000;2023-10-09T21:48:23;6.85;;;2.80;;
44366;SDS011;30086;57.660;12.000;2023-10-09T21:50:49;7.68;;;3.00;;
44366;SDS011;30086;57.660;12.000;2023-10-09T21:53:16;7.65;;;2.75;;
44366;SDS011;30086;57.660;12.000;2023-10-09T21:55:44;7.72;;;3.45;;
44366;SDS011;30086;57.660;12.000;2023-10-09T21:58:12;4.80;;;3.03;;
44366;SDS011;30086;57.660;12.000;2023-10-09T22:00:38;5.97;;;3.30;;
44366;SDS011;30086;57.660;12.000;2023-10-09T22:03:05;7.35;;;3.58;;
44366;SDS011;30086;57.660;12.000;2023-10-09T22:05:35;9.18;;;3.58;;
44366;SDS011;30086;57.660;12.000;2023-10-09T22:08:11;4.65;;;3.00;;
44366;SDS011;30086;57.660;12.000;2023-10-09T22:10:37;11.98;;;3.55;;
44366;SDS011;30086;57.660;12.000;2023-10-09T22:13:04;7.47;;;3.60;;
44366;SDS011;30086;57.660;12.000;2023-10-09T22:15:32;6.47;;;3.47;;
44366;SDS011;30086;57.660;12.000;2023-10-09T22:17:58;6.70;;;3.17;;
44366;SDS011;30086;57.660;12.000;2023-10-09T22:20:27;6.07;;;3.35;;
44366;SDS011;30086;57.660;12.000;2023-10-09T22:22:55;7.50;;;3.38;;
44366;SDS011;30086;57.660;12.000;2023-10-09T22:25:22;5.70;;;3.33;;
44366;SDS011;30086;57.660;12.000;2023-10-09T22:27:48;6.20;;;3.25;;
44366;SDS011;30086;57.660;12.000;2023-10-09T22:30:24;6.63;;;3.45;;
44366;SDS011;30086;57.660;12.000;2023-10-09T22:32:57;6.07;;;3.45;;
44366;SDS011;30086;57.660;12.000;2023-10-09T22:35:30;12.63;;;3.70;;
44366;SDS011;30086;57.660;12.000;2023-10-09T22:38:12;5.80;;;3.83;;
44366;SDS011;30086;57.660;12.000;2023-10-09T22:40:41;6.43;;;3.28;;
44366;SDS011;30086;57.660;12.000;2023-10-09T22:43:08;6.43;;;3.20;;
44366;SDS011;30086;57.660;12.000;2023-10-09T22:45:37;6.40;;;3.38;;
44366;SDS011;30086;57.660;12.000;2023-10-09T22:48:07;7.07;;;3.53;;
44366;SDS011;30086;57.660;12.000;2023-10-09T22:50:39;7.63;;;3.40;;
44366;SDS011;30086;57.660;12.000;2023-10-09T22:53:10;5.05;;;3.17;;
44366;SDS011;30086;57.660;12.000;2023-10-09T22:55:50;6.22;;;3.42;;
44366;SDS011;30086;57.660;12.000;2023-10-09T22:58:18;5.63;;;3.28;;
44366;SDS011;30086;57.660;12.000;2023-10-09T23:00:54;4.90;;;2.37;;
44366;SDS011;30086;57.660;12.000;2023-10-09T23:03:23;5.85;;;3.05;;
44366;SDS011;30086;57.660;12.000;2023-10-09T23:05:54;6.43;;;3.20;;
44366;SDS011;30086;57.660;12.000;2023-10-09T23:08:24;8.35;;;3.30;;
44366;SDS011;30086;57.660;12.000;2023-10-09T23:10:52;7.05;;;3.78;;
44366;SDS011;30086;57.660;12.000;2023-10-09T23:13:19;7.40;;;3.60;;
44366;SDS011;30086;57.660;12.000;2023-10-09T23:15:59;8.73;;;3.38;;
44366;SDS011;30086;57.660;12.000;2023-10-09T23:18:32;4.80;;;3.27;;
44366;SDS011;30086;57.660;12.000;2023-10-09T23:21:01;6.78;;;4.15;;
44366;SDS011;30086;57.660;12.000;2023-10-09T23:23:47;10.10;;;4.20;;
44366;SDS011;30086;57.660;12.000;2023-10-09T23:26:34;10.07;;;3.83;;
44366;SDS011;30086;57.660;12.000;2023-10-09T23:29:17;5.18;;;3.05;;
44366;SDS011;30086;57.660;12.000;2023-10-09T23:31:54;6.85;;;3.60;;
44366;SDS011;30086;57.660;12.000;2023-10-09T23:34:23;7.13;;;3.47;;
44366;SDS011;30086;57.660;12.000;2023-10-09T23:36:57;7.40;;;3.17;;